Brooker, Florida
Current Conditions -  °F | °C
As of 9:53 AM on Wednesday 22 Oct 2014 (Local Time) from KGNV Reporting Station
Clear Clear  
Wind Chill: 67°   Ceiling: Unl
Heat Index: 67°   Visibility: 10mi
Dew Point: 54°   Wind: 5mph
Humidity: 63%   Direction: 20°NNE
Pressure: 30.04"   Gusts: NA
Location:  29.89°N, 82.33°W
Report Text: KGNV 221353Z 02004KT 10SM CLR 19/12 A3004 RMK AO2 SLP170 T01940122
Loading
Personal Weather Stations






























Interactive Weather Map New forecast layout! Learn more

10-Day Weather Forecast

Advertisements
Track Severe Weather on mobile